Time;durP1;ratioP1;P1;durP2;ratioP2;P2;SDS_P1;SDS_P2;PMS_P1;PMS_P2;Temp;Humidity;BMP_temperature;BMP_pressure;BME280_temperature;BME280_humidity;BME280_pressure;Samples;Min_cycle;Max_cycle;Signal;HPM_P1;HPM_P2
2023/03/03 00:00:46;;;;;;;15.52;5.13;;;;;;;;;;7382307;19;20029;-77
2023/03/03 00:03:16;;;;;;;14.57;5.97;;;;;;;;;;7380203;19;19998;-77
2023/03/03 00:05:41;;;;;;;12.32;5.53;;;;;;;;;;7382652;19;20005;-76
2023/03/03 00:08:07;;;;;;;12.05;4.75;;;;;;;;;;7381065;19;20062;-76
2023/03/03 00:10:33;;;;;;;12.60;5.68;;;;;;;;;;7384517;19;20030;-77
2023/03/03 00:12:59;;;;;;;12.25;5.30;;;;;;;;;;7382038;19;20103;-77
2023/03/03 00:15:25;;;;;;;12.98;5.18;;;;;;;;;;7386413;19;19998;-76
2023/03/03 00:17:51;;;;;;;16.30;5.22;;;;;;;;;;7386246;19;19999;-77
2023/03/03 00:20:37;;;;;;;15.07;5.45;;;;;;;;;;7386664;19;20036;-77
2023/03/03 00:23:20;;;;;;;17.08;5.93;;;;;;;;;;7383533;19;20002;-76
2023/03/03 00:25:49;;;;;;;11.70;5.15;;;;;;;;;;7386263;19;20003;-76
2023/03/03 00:28:30;;;;;;;12.30;5.47;;;;;;;;;;7387936;19;20456;-76
2023/03/03 00:31:00;;;;;;;12.73;5.15;;;;;;;;;;7386968;19;19991;-77
2023/03/03 00:33:32;;;;;;;15.15;6.00;;;;;;;;;;7383120;19;20452;-76
2023/03/03 00:36:15;;;;;;;;;;;;;;;;;;7384144;19;20006;-77
2023/03/03 00:38:42;;;;;;;8.90;4.63;;;;;;;;;;7385753;19;19919;-76
2023/03/03 00:41:23;;;;;;;20.08;5.60;;;;;;;;;;7388610;19;19998;-76
2023/03/03 00:43:49;;;;;;;18.25;6.50;;;;;;;;;;7384786;19;20005;-76
2023/03/03 00:46:20;;;;;;;17.35;5.85;;;;;;;;;;7386058;19;20007;-76
2023/03/03 00:48:46;;;;;;;22.60;6.63;;;;;;;;;;7386152;19;20003;-77
2023/03/03 00:51:29;;;;;;;17.75;6.72;;;;;;;;;;7385730;19;19999;-76
2023/03/03 00:53:56;;;;;;;12.02;6.47;;;;;;;;;;7385535;19;20485;-77
2023/03/03 00:56:21;;;;;;;19.13;7.10;;;;;;;;;;7387261;19;20003;-77
2023/03/03 00:58:47;;;;;;;14.55;6.35;;;;;;;;;;7385301;19;20059;-78
2023/03/03 01:01:13;;;;;;;16.13;6.72;;;;;;;;;;7386976;19;20005;-76
2023/03/03 01:03:39;;;;;;;17.23;6.25;;;;;;;;;;7385304;19;19999;-76
2023/03/03 01:06:04;;;;;;;16.25;7.07;;;;;;;;;;7391966;19;20516;-76
2023/03/03 01:08:30;;;;;;;14.45;6.53;;;;;;;;;;7390569;19;20014;-76
2023/03/03 01:10:59;;;;;;;15.52;7.00;;;;;;;;;;7392615;19;20017;-76
2023/03/03 01:13:30;;;;;;;18.10;7.15;;;;;;;;;;7387401;19;20023;-76
2023/03/03 01:15:57;;;;;;;13.80;6.78;;;;;;;;;;7391252;19;20021;-76
2023/03/03 01:18:23;;;;;;;15.73;6.70;;;;;;;;;;7393016;19;19995;-77
2023/03/03 01:20:48;;;;;;;14.25;7.05;;;;;;;;;;7393752;19;19991;-77
2023/03/03 01:23:13;;;;;;;16.88;7.13;;;;;;;;;;7388984;19;19999;-77
2023/03/03 01:25:39;;;;;;;16.80;7.03;;;;;;;;;;7392808;19;19998;-76
2023/03/03 01:28:04;;;;;;;15.90;7.32;;;;;;;;;;7390415;19;20002;-77
2023/03/03 01:30:30;;;;;;;20.20;7.93;;;;;;;;;;7392715;19;20016;-75
2023/03/03 01:32:55;;;;;;;15.63;7.35;;;;;;;;;;7388727;19;19995;-77
2023/03/03 01:35:21;;;;;;;17.48;7.35;;;;;;;;;;7392280;19;20375;-77
2023/03/03 01:37:46;;;;;;;19.08;7.68;;;;;;;;;;7393110;19;20472;-77
2023/03/03 01:40:15;;;;;;;19.20;6.65;;;;;;;;;;7393830;19;20002;-77
2023/03/03 01:42:40;;;;;;;17.88;7.30;;;;;;;;;;7389876;19;20468;-77
2023/03/03 01:45:12;;;;;;;17.35;6.90;;;;;;;;;;7392002;19;19991;-77
2023/03/03 01:47:38;;;;;;;14.63;6.88;;;;;;;;;;7390299;19;19994;-77
2023/03/03 01:50:09;;;;;;;16.63;6.75;;;;;;;;;;7391474;19;20014;-78
2023/03/03 01:52:41;;;;;;;15.35;7.95;;;;;;;;;;7386586;19;20460;-77
2023/03/03 01:55:16;;;;;;;19.15;7.47;;;;;;;;;;7391056;19;19999;-77
2023/03/03 01:57:47;;;;;;;15.45;7.80;;;;;;;;;;7391211;19;20002;-77
2023/03/03 02:00:13;;;;;;;18.92;8.25;;;;;;;;;;7389262;19;20033;-77
2023/03/03 02:02:40;;;;;;;15.93;7.30;;;;;;;;;;7387368;19;19998;-77
2023/03/03 02:05:06;;;;;;;16.15;8.45;;;;;;;;;;7390516;19;19998;-77
2023/03/03 02:07:33;;;;;;;17.48;8.52;;;;;;;;;;7388213;19;20003;-77
2023/03/03 02:10:08;;;;;;;15.02;7.03;;;;;;;;;;7390620;19;19998;-77
2023/03/03 02:12:46;;;;;;;21.55;8.85;;;;;;;;;;7386933;19;20022;-72
2023/03/03 02:15:16;;;;;;;16.05;7.65;;;;;;;;;;7389767;19;20203;-71
2023/03/03 02:17:41;;;;;;;17.98;7.65;;;;;;;;;;7388255;19;20002;-72
2023/03/03 02:20:40;;;;;;;21.55;8.30;;;;;;;;;;7387111;19;20006;-72
2023/03/03 02:23:27;;;;;;;23.40;8.95;;;;;;;;;;7384333;19;20006;-72
2023/03/03 02:25:55;;;;;;;14.25;8.02;;;;;;;;;;7389433;19;20022;-72
2023/03/03 02:28:23;;;;;;;16.58;8.43;;;;;;;;;;7387239;19;20003;-73
2023/03/03 02:30:48;;;;;;;15.50;8.25;;;;;;;;;;7386833;19;20457;-72
2023/03/03 02:33:14;;;;;;;17.92;9.15;;;;;;;;;;7384756;19;20016;-72
2023/03/03 02:35:40;;;;;;;21.20;9.63;;;;;;;;;;7388311;19;20380;-73
2023/03/03 02:38:22;;;;;;;20.98;8.85;;;;;;;;;;7393827;19;20014;-73
2023/03/03 02:41:16;;;;;;;20.08;7.72;;;;;;;;;;7391462;19;20103;-73
2023/03/03 02:43:47;;;;;;;21.95;8.02;;;;;;;;;;7386987;19;20010;-73
2023/03/03 02:46:12;;;;;;;19.08;9.15;;;;;;;;;;7389430;19;20433;-72
2023/03/03 02:48:37;;;;;;;21.88;8.57;;;;;;;;;;7387103;19;20010;-72
2023/03/03 02:51:03;;;;;;;21.42;8.98;;;;;;;;;;7389559;19;20032;-73
2023/03/03 02:53:28;;;;;;;18.58;9.27;;;;;;;;;;7385949;19;19999;-71
2023/03/03 02:55:54;;;;;;;17.77;8.60;;;;;;;;;;7390295;19;20070;-72
2023/03/03 02:58:19;;;;;;;18.83;8.65;;;;;;;;;;7389912;19;20026;-71
2023/03/03 03:00:46;;;;;;;22.70;8.80;;;;;;;;;;7389234;19;20009;-71
2023/03/03 03:03:12;;;;;;;19.02;8.60;;;;;;;;;;7387142;19;20002;-72
2023/03/03 03:05:37;;;;;;;20.48;9.88;;;;;;;;;;7391074;19;20339;-72
2023/03/03 03:08:03;;;;;;;18.40;8.52;;;;;;;;;;7388048;19;20666;-72
2023/03/03 03:10:28;;;;;;;20.20;8.93;;;;;;;;;;7386512;19;20038;-73
2023/03/03 03:12:53;;;;;;;18.00;8.73;;;;;;;;;;7387304;19;20002;-72
2023/03/03 03:15:19;;;;;;;17.33;7.70;;;;;;;;;;7390489;19;20464;-72
2023/03/03 03:17:44;;;;;;;17.73;8.68;;;;;;;;;;7389247;19;19998;-72
2023/03/03 03:20:10;;;;;;;17.40;8.75;;;;;;;;;;7388431;19;20466;-72
2023/03/03 03:22:35;;;;;;;22.52;9.27;;;;;;;;;;7386360;19;20002;-72
2023/03/03 03:25:01;;;;;;;22.38;8.30;;;;;;;;;;7388672;19;20516;-72
2023/03/03 03:27:26;;;;;;;18.58;8.77;;;;;;;;;;7386647;19;19995;-72
2023/03/03 03:29:51;;;;;;;18.90;9.80;;;;;;;;;;7388547;19;20026;-72
2023/03/03 03:32:17;;;;;;;19.00;9.25;;;;;;;;;;7386776;19;19999;-72
2023/03/03 03:34:42;;;;;;;21.08;9.70;;;;;;;;;;7386829;19;20002;-72
2023/03/03 03:37:08;;;;;;;20.77;9.80;;;;;;;;;;7387798;19;20563;-72
2023/03/03 03:39:34;;;;;;;25.67;9.52;;;;;;;;;;7385784;19;20080;-72
2023/03/03 03:42:00;;;;;;;25.13;10.45;;;;;;;;;;7386915;19;19999;-72
2023/03/03 03:44:27;;;;;;;25.02;11.15;;;;;;;;;;7385799;19;20025;-74
2023/03/03 03:46:53;;;;;;;24.10;10.82;;;;;;;;;;7386750;19;19994;-72
2023/03/03 03:49:18;;;;;;;26.70;10.75;;;;;;;;;;7387622;19;20566;-72
2023/03/03 03:51:43;;;;;;;23.27;10.27;;;;;;;;;;7386598;19;20006;-72
2023/03/03 03:54:09;;;;;;;23.13;9.27;;;;;;;;;;7383381;19;19995;-72
2023/03/03 03:56:34;;;;;;;21.30;9.60;;;;;;;;;;7387340;19;20240;-73
2023/03/03 03:58:59;;;;;;;17.98;8.98;;;;;;;;;;7386746;19;20359;-72
2023/03/03 04:01:25;;;;;;;19.42;9.75;;;;;;;;;;7386543;19;19998;-72
2023/03/03 04:03:50;;;;;;;25.52;9.45;;;;;;;;;;7383570;19;20451;-71
2023/03/03 04:06:16;;;;;;;18.35;9.13;;;;;;;;;;7386045;19;20030;-72
2023/03/03 04:08:41;;;;;;;22.48;9.93;;;;;;;;;;7385239;19;20460;-72
2023/03/03 04:11:07;;;;;;;20.15;10.07;;;;;;;;;;7386061;19;20002;-72
2023/03/03 04:13:34;;;;;;;20.83;9.48;;;;;;;;;;7383607;19;19999;-72
2023/03/03 04:16:00;;;;;;;20.77;8.77;;;;;;;;;;7386056;19;20058;-72
2023/03/03 04:18:25;;;;;;;19.35;9.18;;;;;;;;;;7386968;19;20074;-72
2023/03/03 04:20:51;;;;;;;16.90;8.70;;;;;;;;;;7385989;19;20476;-71
2023/03/03 04:23:18;;;;;;;18.90;8.90;;;;;;;;;;7383324;19;20019;-73
2023/03/03 04:25:47;;;;;;;17.65;8.93;;;;;;;;;;7386057;19;20524;-72
2023/03/03 04:28:13;;;;;;;20.30;9.05;;;;;;;;;;7385700;19;20477;-72
2023/03/03 04:30:39;;;;;;;23.23;9.73;;;;;;;;;;7386425;19;20425;-73
2023/03/03 04:33:04;;;;;;;20.17;9.40;;;;;;;;;;7385582;19;20030;-73
2023/03/03 04:35:30;;;;;;;20.38;9.50;;;;;;;;;;7386296;19;19995;-72
2023/03/03 04:37:55;;;;;;;18.52;8.75;;;;;;;;;;7385800;19;20485;-72
2023/03/03 04:40:20;;;;;;;18.02;8.73;;;;;;;;;;7393339;19;20878;-72
2023/03/03 04:42:46;;;;;;;18.30;8.50;;;;;;;;;;7390752;19;20002;-72
2023/03/03 04:45:11;;;;;;;14.82;7.60;;;;;;;;;;7392436;19;20453;-73
2023/03/03 04:47:37;;;;;;;18.88;8.25;;;;;;;;;;7395747;19;19990;-73
2023/03/03 04:50:03;;;;;;;19.42;8.48;;;;;;;;;;7393772;19;20290;-73
2023/03/03 04:52:28;;;;;;;15.35;8.05;;;;;;;;;;7392111;19;19999;-72
2023/03/03 04:54:53;;;;;;;14.90;8.20;;;;;;;;;;7392372;19;20398;-72
2023/03/03 04:57:19;;;;;;;17.90;8.50;;;;;;;;;;7393351;19;20339;-72
2023/03/03 04:59:44;;;;;;;18.02;8.23;;;;;;;;;;7390936;19;20109;-73
2023/03/03 05:02:09;;;;;;;22.65;9.32;;;;;;;;;;7387629;19;20011;-74
2023/03/03 05:04:35;;;;;;;21.67;9.02;;;;;;;;;;7392070;19;20480;-73
2023/03/03 05:07:00;;;;;;;20.55;8.75;;;;;;;;;;7395117;19;20001;-72
2023/03/03 05:09:26;;;;;;;18.55;8.60;;;;;;;;;;7395857;19;19987;-72
2023/03/03 05:11:51;;;;;;;16.30;8.85;;;;;;;;;;7396241;19;19994;-73
2023/03/03 05:14:17;;;;;;;21.23;9.18;;;;;;;;;;7394943;19;20549;-72
2023/03/03 05:16:42;;;;;;;23.75;9.98;;;;;;;;;;7396431;19;20405;-71
2023/03/03 05:19:08;;;;;;;17.17;8.63;;;;;;;;;;7396120;19;20321;-72
2023/03/03 05:21:33;;;;;;;21.30;9.65;;;;;;;;;;7395910;19;20002;-73
2023/03/03 05:23:58;;;;;;;20.08;8.45;;;;;;;;;;7391340;19;20324;-73
2023/03/03 05:26:24;;;;;;;22.27;9.18;;;;;;;;;;7395508;19;19991;-73
2023/03/03 05:28:49;;;;;;;18.50;9.30;;;;;;;;;;7390755;19;19995;-74
2023/03/03 05:31:14;;;;;;;17.23;8.15;;;;;;;;;;7394966;19;19997;-73
2023/03/03 05:33:40;;;;;;;21.55;9.55;;;;;;;;;;7391721;19;20374;-74
2023/03/03 05:36:05;;;;;;;19.55;8.93;;;;;;;;;;7394492;19;20099;-74
2023/03/03 05:38:31;;;;;;;18.05;8.77;;;;;;;;;;7395188;19;19998;-74
2023/03/03 05:40:56;;;;;;;23.50;9.98;;;;;;;;;;7392706;19;20489;-74
2023/03/03 05:43:21;;;;;;;23.05;10.82;;;;;;;;;;7392838;19;19999;-76
2023/03/03 05:45:47;;;;;;;25.42;10.82;;;;;;;;;;7319385;19;20023;-72
2023/03/03 05:48:12;;;;;;;25.58;11.18;;;;;;;;;;7392877;19;20019;-75
2023/03/03 05:50:38;;;;;;;23.55;10.32;;;;;;;;;;7391159;19;20021;-74
2023/03/03 05:53:03;;;;;;;26.88;11.63;;;;;;;;;;7386738;19;20003;-72
2023/03/03 05:55:29;;;;;;;25.92;11.15;;;;;;;;;;7388007;19;20023;-72
2023/03/03 05:57:54;;;;;;;28.70;11.35;;;;;;;;;;7387721;19;20115;-72
2023/03/03 06:00:20;;;;;;;28.63;11.93;;;;;;;;;;7388262;19;20462;-73
2023/03/03 06:02:45;;;;;;;30.55;13.00;;;;;;;;;;7381934;19;19995;-73
2023/03/03 06:05:10;;;;;;;31.40;13.45;;;;;;;;;;7384936;19;20010;-73
2023/03/03 06:07:36;;;;;;;30.38;14.00;;;;;;;;;;7386395;19;19998;-72
2023/03/03 06:10:02;;;;;;;36.63;13.18;;;;;;;;;;7387059;19;20009;-73
2023/03/03 06:12:27;;;;;;;37.47;15.65;;;;;;;;;;7383001;19;20433;-73
2023/03/03 06:14:53;;;;;;;44.67;16.27;;;;;;;;;;7384186;19;20077;-73
2023/03/03 06:17:19;;;;;;;40.63;16.17;;;;;;;;;;7387330;19;20015;-73
2023/03/03 06:19:45;;;;;;;44.10;16.80;;;;;;;;;;7388953;19;20066;-73
2023/03/03 06:22:11;;;;;;;43.15;16.08;;;;;;;;;;7389216;19;19995;-74
2023/03/03 06:24:36;;;;;;;35.95;15.13;;;;;;;;;;7389085;19;20174;-73
2023/03/03 06:27:01;;;;;;;35.03;14.60;;;;;;;;;;7389262;19;20005;-72
2023/03/03 06:29:27;;;;;;;41.03;17.13;;;;;;;;;;7389759;19;19990;-74
2023/03/03 06:31:53;;;;;;;35.03;16.02;;;;;;;;;;7389575;19;20499;-72
2023/03/03 06:34:18;;;;;;;34.58;16.33;;;;;;;;;;7387431;19;19995;-72
2023/03/03 06:36:44;;;;;;;44.58;16.05;;;;;;;;;;7388202;19;20019;-68
2023/03/03 06:39:09;;;;;;;37.70;16.88;;;;;;;;;;7392703;19;20531;-68
2023/03/03 06:41:35;;;;;;;38.65;15.82;;;;;;;;;;7391208;19;19994;-69
2023/03/03 06:44:00;;;;;;;39.25;15.55;;;;;;;;;;7385361;19;20006;-73
2023/03/03 06:46:26;;;;;;;48.85;17.67;;;;;;;;;;7391227;19;20001;-72
2023/03/03 06:48:52;;;;;;;39.78;16.85;;;;;;;;;;7390047;19;19994;-73
2023/03/03 06:51:28;;;;;;;36.50;16.75;;;;;;;;;;7391260;19;20038;-73
2023/03/03 06:53:55;;;;;;;40.25;16.30;;;;;;;;;;7385609;19;19991;-72
2023/03/03 06:56:22;;;;;;;38.92;15.27;;;;;;;;;;7392290;19;20005;-73
2023/03/03 06:58:48;;;;;;;30.15;14.52;;;;;;;;;;7391697;19;20105;-73
2023/03/03 07:01:16;;;;;;;36.67;15.35;;;;;;;;;;7386685;19;20491;-73
2023/03/03 07:03:41;;;;;;;36.85;16.27;;;;;;;;;;7383436;19;20460;-72
2023/03/03 07:06:21;;;;;;;31.67;14.63;;;;;;;;;;7387053;19;20002;-72
2023/03/03 07:08:47;;;;;;;36.20;16.75;;;;;;;;;;7383373;19;20362;-72
2023/03/03 07:11:16;;;;;;;34.85;15.05;;;;;;;;;;7388575;19;20058;-73
2023/03/03 07:13:46;;;;;;;35.38;15.80;;;;;;;;;;7388354;19;20005;-73
2023/03/03 07:16:13;;;;;;;23.17;10.40;;;;;;;;;;7389548;19;20032;-72
2023/03/03 07:19:04;;;;;;;33.65;14.48;;;;;;;;;;7390756;19;19999;-72
2023/03/03 07:21:37;;;;;;;40.40;18.00;;;;;;;;;;7387834;19;20452;-72
2023/03/03 07:24:41;;;;;;;34.47;14.93;;;;;;;;;;7386099;19;20041;-72
2023/03/03 07:27:18;;;;;;;37.00;14.15;;;;;;;;;;7386156;19;20354;-73
2023/03/03 07:29:46;;;;;;;33.38;14.63;;;;;;;;;;7389014;19;20033;-72
2023/03/03 07:32:42;;;;;;;36.70;15.02;;;;;;;;;;7390000;19;20460;-72
2023/03/03 07:35:34;;;;;;;27.27;13.27;;;;;;;;;;7391036;19;20058;-73
2023/03/03 07:38:00;;;;;;;31.60;15.25;;;;;;;;;;7389714;19;20126;-73
2023/03/03 07:40:35;;;;;;;38.60;17.30;;;;;;;;;;7390154;19;20782;-72
2023/03/03 07:43:29;;;;;;;39.25;16.67;;;;;;;;;;7385385;19;20019;-72
2023/03/03 07:46:02;;;;;;;43.10;17.45;;;;;;;;;;7390116;19;20010;-72
2023/03/03 07:48:35;;;;;;;40.58;19.00;;;;;;;;;;7388062;19;19998;-72
2023/03/03 07:51:41;;;;;;;36.17;16.55;;;;;;;;;;7386496;19;20531;-71
2023/03/03 07:54:30;;;;;;;36.53;17.67;;;;;;;;;;7383668;19;20007;-73
2023/03/03 07:57:12;;;;;;;29.52;13.48;;;;;;;;;;7390083;19;20010;-71
2023/03/03 07:59:44;;;;;;;32.22;14.98;;;;;;;;;;7387890;19;20008;-72
2023/03/03 08:02:30;;;;;;;33.92;16.58;;;;;;;;;;7390477;19;20006;-72
2023/03/03 08:04:55;;;;;;;33.20;17.20;;;;;;;;;;7390319;19;20006;-72
2023/03/03 08:07:22;;;;;;;32.25;15.57;;;;;;;;;;7388256;19;20503;-72
2023/03/03 08:10:00;;;;;;;42.28;14.88;;;;;;;;;;7386096;19;20003;-71
2023/03/03 08:12:41;;;;;;;27.95;14.10;;;;;;;;;;7387515;19;20002;-80
2023/03/03 08:15:21;;;;;;;36.60;16.83;;;;;;;;;;7387725;19;20003;-78
2023/03/03 08:17:50;;;;;;;31.92;16.23;;;;;;;;;;7391846;19;20020;-78
2023/03/03 08:20:28;;;;;;;31.90;15.50;;;;;;;;;;7393865;19;20027;-79
2023/03/03 08:22:53;;;;;;;29.00;14.52;;;;;;;;;;7390627;19;20014;-78
2023/03/03 08:25:19;;;;;;;31.05;14.95;;;;;;;;;;7389648;19;20016;-78
2023/03/03 08:27:44;;;;;;;31.35;12.90;;;;;;;;;;7390551;19;20023;-78
2023/03/03 08:30:10;;;;;;;27.83;13.63;;;;;;;;;;7389666;19;20002;-79
2023/03/03 08:32:35;;;;;;;31.52;14.73;;;;;;;;;;7386519;19;20007;-79
2023/03/03 08:35:01;;;;;;;22.15;10.82;;;;;;;;;;7392488;19;19995;-79
2023/03/03 08:37:26;;;;;;;28.08;12.27;;;;;;;;;;7391436;19;20009;-79
2023/03/03 08:39:51;;;;;;;28.95;13.07;;;;;;;;;;7387956;19;19998;-79
2023/03/03 08:42:17;;;;;;;28.42;14.10;;;;;;;;;;7389496;19;20390;-77
2023/03/03 08:44:42;;;;;;;31.58;17.30;;;;;;;;;;7385687;19;19999;-79
2023/03/03 08:47:07;;;;;;;34.92;15.27;;;;;;;;;;7387483;19;20818;-79
2023/03/03 08:49:33;;;;;;;26.25;12.82;;;;;;;;;;7390299;19;20507;-78
2023/03/03 08:51:59;;;;;;;28.08;11.27;;;;;;;;;;7385922;19;19995;-79
2023/03/03 08:54:25;;;;;;;28.23;13.90;;;;;;;;;;7383201;19;19998;-79
2023/03/03 08:56:50;;;;;;;29.73;15.43;;;;;;;;;;7389534;19;19998;-79
2023/03/03 08:59:16;;;;;;;25.08;12.30;;;;;;;;;;7385900;19;20468;-79
2023/03/03 09:01:43;;;;;;;29.67;14.45;;;;;;;;;;7385371;19;20110;-79
2023/03/03 09:04:09;;;;;;;31.48;16.05;;;;;;;;;;7383081;19;20010;-78
2023/03/03 09:06:34;;;;;;;28.85;12.90;;;;;;;;;;7386752;19;20577;-78
2023/03/03 09:09:00;;;;;;;32.80;14.68;;;;;;;;;;7385362;19;19998;-77
2023/03/03 09:11:27;;;;;;;30.63;16.35;;;;;;;;;;7387140;19;20034;-79
2023/03/03 09:14:10;;;;;;;28.42;14.60;;;;;;;;;;7382951;19;20087;-78
2023/03/03 09:16:38;;;;;;;37.03;17.23;;;;;;;;;;7387570;19;20021;-78
2023/03/03 09:19:31;;;;;;;31.95;15.15;;;;;;;;;;7364197;19;20002;-78
2023/03/03 09:22:08;;;;;;;27.40;13.52;;;;;;;;;;7387713;19;19999;-78
2023/03/03 09:24:35;;;;;;;33.47;13.75;;;;;;;;;;7386112;19;20013;-79
2023/03/03 09:27:01;;;;;;;26.20;12.07;;;;;;;;;;7394280;19;20464;-77
2023/03/03 09:29:29;;;;;;;26.08;12.73;;;;;;;;;;7393265;19;19999;-78
2023/03/03 09:32:05;;;;;;;38.05;13.95;;;;;;;;;;7392983;19;19998;-78
2023/03/03 09:34:41;;;;;;;31.33;14.05;;;;;;;;;;7388423;19;19998;-76
2023/03/03 09:37:23;;;;;;;31.00;13.82;;;;;;;;;;7393308;19;19999;-78
2023/03/03 09:39:54;;;;;;;27.98;13.25;;;;;;;;;;7393190;19;20002;-79
2023/03/03 09:42:59;;;;;;;31.30;14.80;;;;;;;;;;7392943;19;19999;-78
2023/03/03 09:45:40;;;;;;;25.50;11.07;;;;;;;;;;7390993;19;20363;-78
2023/03/03 09:48:12;;;;;;;25.85;12.88;;;;;;;;;;7391656;19;20004;-76
2023/03/03 09:50:46;;;;;;;32.60;15.27;;;;;;;;;;7395181;19;20019;-77
2023/03/03 09:53:18;;;;;;;30.05;14.32;;;;;;;;;;7392308;19;20020;-78
2023/03/03 09:56:06;;;;;;;30.52;16.27;;;;;;;;;;7392285;19;20356;-77
2023/03/03 09:59:17;;;;;;;24.17;11.30;;;;;;;;;;7394896;19;20058;-77
2023/03/03 10:01:45;;;;;;;24.00;12.23;;;;;;;;;;7352447;19;20010;-79
2023/03/03 10:04:42;;;;;;;19.75;10.25;;;;;;;;;;7387653;19;20698;-78
2023/03/03 10:07:29;;;;;;;28.90;14.73;;;;;;;;;;7395330;19;20004;-79
2023/03/03 10:10:32;;;;;;;19.25;9.95;;;;;;;;;;7392637;19;19999;-78
2023/03/03 10:13:25;;;;;;;26.13;12.15;;;;;;;;;;7392116;19;20066;-79
2023/03/03 10:16:06;;;;;;;26.85;13.95;;;;;;;;;;7392839;19;20006;-78
2023/03/03 10:18:59;;;;;;;28.80;12.80;;;;;;;;;;7393407;19;20654;-78
2023/03/03 10:21:48;;;;;;;28.95;14.88;;;;;;;;;;7390645;19;19999;-79
2023/03/03 10:24:27;;;;;;;25.85;13.25;;;;;;;;;;7388797;19;19995;-78
2023/03/03 10:27:08;;;;;;;29.52;16.23;;;;;;;;;;7394025;19;20054;-78
2023/03/03 10:29:49;;;;;;;21.88;11.98;;;;;;;;;;7390912;19;19991;-78
2023/03/03 10:32:32;;;;;;;;;;;;;;;;;;7394098;19;20085;-78
2023/03/03 10:35:35;;;;;;;28.40;15.32;;;;;;;;;;7392285;19;20355;-78
2023/03/03 10:38:28;;;;;;;28.10;15.10;;;;;;;;;;7387626;19;20003;-78
2023/03/03 10:41:34;;;;;;;26.35;15.02;;;;;;;;;;7392780;19;20464;-78
2023/03/03 10:44:34;;;;;;;39.40;14.40;;;;;;;;;;7387324;19;19995;-78
2023/03/03 10:47:03;;;;;;;30.58;16.02;;;;;;;;;;7390912;19;20002;-78
2023/03/03 10:49:54;;;;;;;29.70;15.32;;;;;;;;;;7390466;19;20763;-78
2023/03/03 10:52:30;;;;;;;;;;;;;;;;;;7391907;19;20006;-77
2023/03/03 10:55:36;;;;;;;28.70;15.18;;;;;;;;;;7391458;19;19918;-78
2023/03/03 10:58:07;;;;;;;28.50;14.13;;;;;;;;;;7390935;19;19995;-78
2023/03/03 11:00:51;;;;;;;23.17;12.48;;;;;;;;;;7391851;19;20029;-77
2023/03/03 11:03:42;;;;;;;30.90;15.07;;;;;;;;;;7386506;19;20002;-78
2023/03/03 11:06:32;;;;;;;26.75;14.73;;;;;;;;;;7390155;19;20002;-77
2023/03/03 11:09:07;;;;;;;28.85;15.07;;;;;;;;;;7391055;19;20039;-79
2023/03/03 11:11:52;;;;;;;30.25;15.98;;;;;;;;;;7391516;19;19999;-76
2023/03/03 11:14:28;;;;;;;25.85;14.15;;;;;;;;;;7387492;19;19998;-78
2023/03/03 11:17:15;;;;;;;36.03;14.70;;;;;;;;;;7318144;19;19995;-78
2023/03/03 11:20:14;;;;;;;28.98;15.45;;;;;;;;;;7390698;19;19995;-79
2023/03/03 11:22:46;;;;;;;24.52;13.02;;;;;;;;;;7383953;19;19998;-79
2023/03/03 11:25:19;;;;;;;29.55;15.30;;;;;;;;;;7388000;19;20002;-78
2023/03/03 11:28:22;;;;;;;25.80;14.13;;;;;;;;;;7382611;19;21087;-78
2023/03/03 11:31:27;;;;;;;29.08;15.20;;;;;;;;;;7387068;19;20368;-78
2023/03/03 11:33:53;;;;;;;25.63;12.38;;;;;;;;;;7382768;19;20027;-78
2023/03/03 11:36:48;;;;;;;25.27;13.27;;;;;;;;;;7387065;19;19998;-77
2023/03/03 11:39:16;;;;;;;26.02;11.88;;;;;;;;;;7384367;19;20066;-77
2023/03/03 11:42:15;;;;;;;29.65;14.63;;;;;;;;;;7388718;19;20002;-79
2023/03/03 11:44:46;;;;;;;27.15;13.10;;;;;;;;;;7389072;19;19994;-78
2023/03/03 11:47:24;;;;;;;29.95;15.07;;;;;;;;;;7391552;19;20002;-79
2023/03/03 11:50:08;;;;;;;23.70;12.82;;;;;;;;;;7389736;19;20011;-78
2023/03/03 11:52:41;;;;;;;25.85;14.05;;;;;;;;;;7391174;19;20002;-78
2023/03/03 11:55:17;;;;;;;18.30;7.90;;;;;;;;;;7389016;19;19998;-78
2023/03/03 11:57:46;;;;;;;33.38;13.63;;;;;;;;;;7389730;19;20011;-78
2023/03/03 12:00:25;;;;;;;16.88;8.20;;;;;;;;;;7389780;19;20524;-79
2023/03/03 12:03:09;;;;;;;25.42;12.43;;;;;;;;;;7390245;19;20022;-78
2023/03/03 12:05:48;;;;;;;29.08;13.27;;;;;;;;;;7386501;19;20002;-79
2023/03/03 12:08:47;;;;;;;30.58;13.60;;;;;;;;;;7388107;19;20528;-77
2023/03/03 12:11:15;;;;;;;30.30;14.05;;;;;;;;;;7387835;19;20010;-77
2023/03/03 12:13:57;;;;;;;28.25;13.13;;;;;;;;;;7385200;19;20008;-77
2023/03/03 12:16:55;;;;;;;26.48;13.57;;;;;;;;;;7389125;19;19994;-79
2023/03/03 12:19:29;;;;;;;26.00;13.93;;;;;;;;;;7388402;19;20037;-79
2023/03/03 12:22:15;;;;;;;23.75;12.30;;;;;;;;;;7390064;19;20002;-80
2023/03/03 12:25:05;;;;;;;22.92;12.57;;;;;;;;;;7386108;19;19999;-80
2023/03/03 12:27:42;;;;;;;23.25;12.00;;;;;;;;;;7385566;19;19999;-80
2023/03/03 12:30:32;;;;;;;25.75;12.80;;;;;;;;;;7387996;19;20479;-82
2023/03/03 12:33:17;;;;;;;23.77;12.02;;;;;;;;;;7387417;19;20452;-80
2023/03/03 12:36:11;;;;;;;23.65;13.10;;;;;;;;;;7385986;19;20009;-80
2023/03/03 12:38:54;;;;;;;23.27;12.45;;;;;;;;;;7388720;19;20023;-78
2023/03/03 12:41:28;;;;;;;21.95;12.15;;;;;;;;;;7388457;19;20003;-78
2023/03/03 12:44:38;;;;;;;23.55;12.70;;;;;;;;;;7382265;19;20003;-79
2023/03/03 12:47:28;;;;;;;20.67;11.95;;;;;;;;;;7388637;19;20010;-79
2023/03/03 12:50:09;;;;;;;23.00;12.73;;;;;;;;;;7393159;19;20011;-78
2023/03/03 12:52:52;;;;;;;22.08;13.05;;;;;;;;;;7386794;19;20074;-79
2023/03/03 12:55:43;;;;;;;23.08;14.20;;;;;;;;;;7388566;19;20411;-77
2023/03/03 12:58:11;;;;;;;;;;;;;;;;;;7387838;19;20002;-78
2023/03/03 13:00:41;;;;;;;25.90;11.45;;;;;;;;;;7392698;19;19930;-78
2023/03/03 13:03:27;;;;;;;23.55;12.80;;;;;;;;;;7392388;19;20027;-77
2023/03/03 13:06:05;;;;;;;27.45;12.13;;;;;;;;;;7396019;19;20030;-75
2023/03/03 13:08:57;;;;;;;23.25;12.82;;;;;;;;;;7394136;19;20017;-75
2023/03/03 13:11:28;;;;;;;21.90;11.65;;;;;;;;;;7395352;19;19999;-75
2023/03/03 13:14:19;;;;;;;24.48;12.27;;;;;;;;;;7391501;19;20401;-79
2023/03/03 13:17:13;;;;;;;23.02;11.27;;;;;;;;;;7395018;19;20476;-77
2023/03/03 13:19:59;;;;;;;21.10;12.00;;;;;;;;;;7393114;19;20090;-78
2023/03/03 13:22:40;;;;;;;22.05;11.48;;;;;;;;;;7393282;19;20002;-77
2023/03/03 13:25:17;;;;;;;25.05;12.00;;;;;;;;;;7393433;19;20468;-77
2023/03/03 13:27:45;;;;;;;23.08;11.52;;;;;;;;;;7391995;19;19995;-77
2023/03/03 13:30:18;;;;;;;23.33;12.18;;;;;;;;;;7392818;19;19995;-77
2023/03/03 13:32:48;;;;;;;21.88;11.48;;;;;;;;;;7391469;19;20025;-77
2023/03/03 13:35:48;;;;;;;22.07;11.40;;;;;;;;;;7394206;19;20010;-78
2023/03/03 13:38:30;;;;;;;24.15;11.57;;;;;;;;;;7395689;19;20383;-77
2023/03/03 13:41:15;;;;;;;21.35;11.68;;;;;;;;;;7395044;19;20078;-77
2023/03/03 13:43:50;;;;;;;19.48;10.95;;;;;;;;;;7388645;19;20002;-78
2023/03/03 13:46:21;;;;;;;20.85;11.05;;;;;;;;;;7394793;19;20040;-77
2023/03/03 13:49:10;;;;;;;16.80;9.38;;;;;;;;;;7390670;19;19998;-76
2023/03/03 13:52:11;;;;;;;19.98;11.10;;;;;;;;;;7392828;19;20376;-77
2023/03/03 13:54:47;;;;;;;20.80;10.27;;;;;;;;;;7392533;19;20310;-77
2023/03/03 13:57:17;;;;;;;20.90;11.52;;;;;;;;;;7396289;19;19995;-76
2023/03/03 13:59:56;;;;;;;23.25;10.32;;;;;;;;;;7393916;19;20066;-78
2023/03/03 14:02:46;;;;;;;19.40;11.05;;;;;;;;;;7393696;19;20015;-77
2023/03/03 14:05:37;;;;;;;21.83;10.77;;;;;;;;;;7394977;19;20086;-76
2023/03/03 14:08:13;;;;;;;19.88;10.40;;;;;;;;;;7390802;19;20014;-76
2023/03/03 14:11:02;;;;;;;19.98;10.77;;;;;;;;;;7393416;19;20002;-76
2023/03/03 14:13:56;;;;;;;21.38;10.82;;;;;;;;;;7386390;19;20489;-77
2023/03/03 14:16:49;;;;;;;19.00;10.63;;;;;;;;;;7390812;19;20384;-77
2023/03/03 14:19:27;;;;;;;17.80;9.52;;;;;;;;;;7390875;19;20070;-77
2023/03/03 14:22:01;;;;;;;18.35;10.23;;;;;;;;;;7392116;19;20009;-78
2023/03/03 14:24:27;;;;;;;17.05;10.18;;;;;;;;;;7387219;19;20345;-79
2023/03/03 14:26:55;;;;;;;20.67;10.20;;;;;;;;;;7394883;19;20006;-78
2023/03/03 14:29:26;;;;;;;19.30;9.95;;;;;;;;;;7392120;19;20078;-79
2023/03/03 14:32:25;;;;;;;22.30;10.30;;;;;;;;;;7390408;19;20022;-78
2023/03/03 14:34:58;;;;;;;18.48;9.23;;;;;;;;;;7391921;19;20091;-78
2023/03/03 14:37:28;;;;;;;18.23;8.95;;;;;;;;;;7390143;19;20007;-79
2023/03/03 14:40:13;;;;;;;18.27;10.57;;;;;;;;;;7393074;19;20009;-79
2023/03/03 14:42:49;;;;;;;18.48;9.45;;;;;;;;;;7389118;19;20006;-79
2023/03/03 14:45:21;;;;;;;20.27;8.32;;;;;;;;;;7392596;19;20002;-79
2023/03/03 14:47:47;;;;;;;16.50;8.50;;;;;;;;;;7391475;19;19998;-77
2023/03/03 14:50:33;;;;;;;16.80;8.77;;;;;;;;;;7390682;19;20010;-78
2023/03/03 14:53:13;;;;;;;16.88;9.15;;;;;;;;;;7388894;19;20449;-78
2023/03/03 14:55:41;;;;;;;16.80;9.07;;;;;;;;;;7386533;19;20041;-78
2023/03/03 14:58:30;;;;;;;16.65;8.27;;;;;;;;;;7388746;19;20014;-78
2023/03/03 15:01:32;;;;;;;20.25;8.95;;;;;;;;;;7390064;19;20003;-79